sensor_id;sensor_type;location;lat;lon;timestamp;P1;durP1;ratioP1;P2;durP2;ratioP2
66012;SDS011;52783;50.502;8.190;2023-07-20T00:01:12;7.78;;;2.70;;
66012;SDS011;52783;50.502;8.190;2023-07-20T00:03:38;9.63;;;2.53;;
66012;SDS011;52783;50.502;8.190;2023-07-20T00:06:04;5.63;;;2.75;;
66012;SDS011;52783;50.502;8.190;2023-07-20T00:08:29;6.20;;;3.20;;
66012;SDS011;52783;50.502;8.190;2023-07-20T00:10:55;6.28;;;2.60;;
66012;SDS011;52783;50.502;8.190;2023-07-20T00:13:21;4.72;;;2.30;;
66012;SDS011;52783;50.502;8.190;2023-07-20T00:15:46;7.97;;;2.40;;
66012;SDS011;52783;50.502;8.190;2023-07-20T00:18:12;8.90;;;2.47;;
66012;SDS011;52783;50.502;8.190;2023-07-20T00:20:38;4.97;;;2.40;;
66012;SDS011;52783;50.502;8.190;2023-07-20T00:23:04;4.15;;;2.47;;
66012;SDS011;52783;50.502;8.190;2023-07-20T00:25:30;8.05;;;2.88;;
66012;SDS011;52783;50.502;8.190;2023-07-20T00:27:55;6.63;;;2.53;;
66012;SDS011;52783;50.502;8.190;2023-07-20T00:30:21;5.00;;;2.60;;
66012;SDS011;52783;50.502;8.190;2023-07-20T00:32:46;4.80;;;2.45;;
66012;SDS011;52783;50.502;8.190;2023-07-20T00:35:12;5.63;;;2.53;;
66012;SDS011;52783;50.502;8.190;2023-07-20T00:37:38;6.53;;;2.65;;
66012;SDS011;52783;50.502;8.190;2023-07-20T00:40:05;6.47;;;2.40;;
66012;SDS011;52783;50.502;8.190;2023-07-20T00:42:32;4.65;;;2.45;;
66012;SDS011;52783;50.502;8.190;2023-07-20T00:44:58;6.55;;;2.88;;
66012;SDS011;52783;50.502;8.190;2023-07-20T00:47:24;5.05;;;2.72;;
66012;SDS011;52783;50.502;8.190;2023-07-20T00:49:50;3.78;;;2.33;;
66012;SDS011;52783;50.502;8.190;2023-07-20T00:52:16;4.35;;;2.42;;
66012;SDS011;52783;50.502;8.190;2023-07-20T00:54:45;11.32;;;3.08;;
66012;SDS011;52783;50.502;8.190;2023-07-20T00:57:11;7.07;;;2.45;;
66012;SDS011;52783;50.502;8.190;2023-07-20T00:59:42;8.55;;;2.70;;
66012;SDS011;52783;50.502;8.190;2023-07-20T01:02:08;5.85;;;2.55;;
66012;SDS011;52783;50.502;8.190;2023-07-20T01:04:34;8.10;;;2.75;;
66012;SDS011;52783;50.502;8.190;2023-07-20T01:07:08;4.60;;;2.65;;
66012;SDS011;52783;50.502;8.190;2023-07-20T01:09:40;9.23;;;2.97;;
66012;SDS011;52783;50.502;8.190;2023-07-20T01:12:14;8.77;;;2.90;;
66012;SDS011;52783;50.502;8.190;2023-07-20T01:14:45;4.70;;;2.78;;
66012;SDS011;52783;50.502;8.190;2023-07-20T01:17:12;9.98;;;2.53;;
66012;SDS011;52783;50.502;8.190;2023-07-20T01:19:38;8.38;;;2.80;;
66012;SDS011;52783;50.502;8.190;2023-07-20T01:22:20;10.95;;;2.88;;
66012;SDS011;52783;50.502;8.190;2023-07-20T01:31:27;10.80;;;2.92;;
66012;SDS011;52783;50.502;8.190;2023-07-20T01:33:56;8.27;;;2.90;;
66012;SDS011;52783;50.502;8.190;2023-07-20T01:36:23;7.30;;;3.13;;
66012;SDS011;52783;50.502;8.190;2023-07-20T01:38:51;5.05;;;3.20;;
66012;SDS011;52783;50.502;8.190;2023-07-20T01:41:17;5.40;;;3.03;;
66012;SDS011;52783;50.502;8.190;2023-07-20T01:43:43;6.45;;;3.20;;
66012;SDS011;52783;50.502;8.190;2023-07-20T01:46:09;7.80;;;3.22;;
66012;SDS011;52783;50.502;8.190;2023-07-20T01:48:35;8.30;;;2.90;;
66012;SDS011;52783;50.502;8.190;2023-07-20T01:51:00;5.82;;;2.65;;
66012;SDS011;52783;50.502;8.190;2023-07-20T01:53:26;7.05;;;3.03;;
66012;SDS011;52783;50.502;8.190;2023-07-20T01:55:52;6.82;;;3.25;;
66012;SDS011;52783;50.502;8.190;2023-07-20T01:58:19;5.82;;;3.15;;
66012;SDS011;52783;50.502;8.190;2023-07-20T02:00:45;10.45;;;4.25;;
66012;SDS011;52783;50.502;8.190;2023-07-20T02:03:10;15.88;;;3.25;;
66012;SDS011;52783;50.502;8.190;2023-07-20T02:05:37;15.13;;;3.65;;
66012;SDS011;52783;50.502;8.190;2023-07-20T02:08:02;12.10;;;3.42;;
66012;SDS011;52783;50.502;8.190;2023-07-20T02:10:28;6.30;;;3.33;;
66012;SDS011;52783;50.502;8.190;2023-07-20T02:12:53;10.00;;;3.53;;
66012;SDS011;52783;50.502;8.190;2023-07-20T02:15:19;9.02;;;3.70;;
66012;SDS011;52783;50.502;8.190;2023-07-20T02:17:46;8.77;;;3.88;;
66012;SDS011;52783;50.502;8.190;2023-07-20T02:20:11;12.60;;;3.53;;
66012;SDS011;52783;50.502;8.190;2023-07-20T02:22:37;5.25;;;3.60;;
66012;SDS011;52783;50.502;8.190;2023-07-20T02:25:04;7.80;;;3.95;;
66012;SDS011;52783;50.502;8.190;2023-07-20T02:27:30;9.00;;;4.20;;
66012;SDS011;52783;50.502;8.190;2023-07-20T02:29:56;7.80;;;3.58;;
66012;SDS011;52783;50.502;8.190;2023-07-20T02:32:21;7.38;;;3.90;;
66012;SDS011;52783;50.502;8.190;2023-07-20T02:34:47;7.90;;;3.80;;
66012;SDS011;52783;50.502;8.190;2023-07-20T02:37:12;9.63;;;4.80;;
66012;SDS011;52783;50.502;8.190;2023-07-20T02:39:38;11.10;;;4.80;;
66012;SDS011;52783;50.502;8.190;2023-07-20T02:42:04;9.70;;;4.20;;
66012;SDS011;52783;50.502;8.190;2023-07-20T02:44:30;9.50;;;4.75;;
66012;SDS011;52783;50.502;8.190;2023-07-20T02:46:56;12.15;;;5.07;;
66012;SDS011;52783;50.502;8.190;2023-07-20T02:49:21;7.43;;;4.20;;
66012;SDS011;52783;50.502;8.190;2023-07-20T02:51:47;12.70;;;4.40;;
66012;SDS011;52783;50.502;8.190;2023-07-20T02:54:12;14.38;;;4.45;;
66012;SDS011;52783;50.502;8.190;2023-07-20T02:56:38;9.65;;;4.05;;
66012;SDS011;52783;50.502;8.190;2023-07-20T02:59:03;6.40;;;4.20;;
66012;SDS011;52783;50.502;8.190;2023-07-20T03:01:29;9.55;;;4.05;;
66012;SDS011;52783;50.502;8.190;2023-07-20T03:03:55;6.30;;;3.60;;
66012;SDS011;52783;50.502;8.190;2023-07-20T03:06:21;10.60;;;4.10;;
66012;SDS011;52783;50.502;8.190;2023-07-20T03:08:47;10.63;;;4.88;;
66012;SDS011;52783;50.502;8.190;2023-07-20T03:11:16;8.50;;;4.60;;
66012;SDS011;52783;50.502;8.190;2023-07-20T03:13:42;12.40;;;4.70;;
66012;SDS011;52783;50.502;8.190;2023-07-20T03:16:08;12.23;;;4.57;;
66012;SDS011;52783;50.502;8.190;2023-07-20T03:18:39;11.35;;;4.82;;
66012;SDS011;52783;50.502;8.190;2023-07-20T03:21:05;16.35;;;4.80;;
66012;SDS011;52783;50.502;8.190;2023-07-20T03:23:31;11.15;;;5.18;;
66012;SDS011;52783;50.502;8.190;2023-07-20T03:25:57;12.23;;;5.15;;
66012;SDS011;52783;50.502;8.190;2023-07-20T03:28:22;8.30;;;5.03;;
66012;SDS011;52783;50.502;8.190;2023-07-20T03:30:54;8.82;;;5.15;;
66012;SDS011;52783;50.502;8.190;2023-07-20T03:33:26;12.35;;;5.45;;
66012;SDS011;52783;50.502;8.190;2023-07-20T03:35:54;12.30;;;5.15;;
66012;SDS011;52783;50.502;8.190;2023-07-20T03:38:20;14.20;;;5.20;;
66012;SDS011;52783;50.502;8.190;2023-07-20T03:40:52;14.63;;;5.07;;
66012;SDS011;52783;50.502;8.190;2023-07-20T03:43:19;10.65;;;5.22;;
66012;SDS011;52783;50.502;8.190;2023-07-20T03:45:44;9.70;;;5.20;;
66012;SDS011;52783;50.502;8.190;2023-07-20T03:48:10;10.10;;;5.40;;
66012;SDS011;52783;50.502;8.190;2023-07-20T03:50:37;11.82;;;5.03;;
66012;SDS011;52783;50.502;8.190;2023-07-20T03:53:03;12.68;;;5.40;;
66012;SDS011;52783;50.502;8.190;2023-07-20T03:55:28;12.15;;;5.57;;
66012;SDS011;52783;50.502;8.190;2023-07-20T03:57:54;15.80;;;5.88;;
66012;SDS011;52783;50.502;8.190;2023-07-20T04:00:19;10.27;;;5.32;;
66012;SDS011;52783;50.502;8.190;2023-07-20T04:02:45;10.90;;;5.93;;
66012;SDS011;52783;50.502;8.190;2023-07-20T04:05:11;10.15;;;5.40;;
66012;SDS011;52783;50.502;8.190;2023-07-20T04:07:36;8.95;;;5.00;;
66012;SDS011;52783;50.502;8.190;2023-07-20T04:10:02;8.90;;;5.18;;
66012;SDS011;52783;50.502;8.190;2023-07-20T04:12:27;7.63;;;5.03;;
66012;SDS011;52783;50.502;8.190;2023-07-20T04:14:53;11.00;;;4.90;;
66012;SDS011;52783;50.502;8.190;2023-07-20T04:17:18;11.00;;;4.95;;
66012;SDS011;52783;50.502;8.190;2023-07-20T04:19:44;10.68;;;4.90;;
66012;SDS011;52783;50.502;8.190;2023-07-20T04:22:10;8.40;;;5.28;;
66012;SDS011;52783;50.502;8.190;2023-07-20T04:24:35;8.43;;;4.88;;
66012;SDS011;52783;50.502;8.190;2023-07-20T04:27:01;8.43;;;5.07;;
66012;SDS011;52783;50.502;8.190;2023-07-20T04:29:26;9.05;;;4.75;;
66012;SDS011;52783;50.502;8.190;2023-07-20T04:31:52;10.95;;;4.90;;
66012;SDS011;52783;50.502;8.190;2023-07-20T04:34:17;12.65;;;4.30;;
66012;SDS011;52783;50.502;8.190;2023-07-20T04:36:43;10.50;;;4.63;;
66012;SDS011;52783;50.502;8.190;2023-07-20T04:39:09;6.95;;;4.18;;
66012;SDS011;52783;50.502;8.190;2023-07-20T04:41:35;8.07;;;4.43;;
66012;SDS011;52783;50.502;8.190;2023-07-20T04:44:00;8.35;;;4.60;;
66012;SDS011;52783;50.502;8.190;2023-07-20T04:46:26;8.63;;;4.35;;
66012;SDS011;52783;50.502;8.190;2023-07-20T04:48:51;8.27;;;4.18;;
66012;SDS011;52783;50.502;8.190;2023-07-20T04:51:17;8.52;;;4.47;;
66012;SDS011;52783;50.502;8.190;2023-07-20T04:53:45;7.50;;;4.18;;
66012;SDS011;52783;50.502;8.190;2023-07-20T04:56:11;6.68;;;4.20;;
66012;SDS011;52783;50.502;8.190;2023-07-20T04:58:37;8.48;;;4.05;;
66012;SDS011;52783;50.502;8.190;2023-07-20T05:01:02;8.05;;;3.90;;
66012;SDS011;52783;50.502;8.190;2023-07-20T05:03:28;10.07;;;3.92;;
66012;SDS011;52783;50.502;8.190;2023-07-20T05:05:54;7.32;;;4.35;;
66012;SDS011;52783;50.502;8.190;2023-07-20T05:08:19;7.18;;;3.33;;
66012;SDS011;52783;50.502;8.190;2023-07-20T05:10:47;6.25;;;3.70;;
66012;SDS011;52783;50.502;8.190;2023-07-20T05:13:12;8.15;;;3.80;;
66012;SDS011;52783;50.502;8.190;2023-07-20T05:15:38;6.30;;;3.47;;
66012;SDS011;52783;50.502;8.190;2023-07-20T05:18:03;7.72;;;3.80;;
66012;SDS011;52783;50.502;8.190;2023-07-20T05:20:29;11.63;;;3.65;;
66012;SDS011;52783;50.502;8.190;2023-07-20T05:22:56;5.57;;;3.65;;
66012;SDS011;52783;50.502;8.190;2023-07-20T05:25:22;6.18;;;3.75;;
66012;SDS011;52783;50.502;8.190;2023-07-20T05:27:47;6.07;;;3.38;;
66012;SDS011;52783;50.502;8.190;2023-07-20T05:30:13;6.90;;;3.85;;
66012;SDS011;52783;50.502;8.190;2023-07-20T05:32:39;7.20;;;3.60;;
66012;SDS011;52783;50.502;8.190;2023-07-20T05:35:05;7.72;;;3.40;;
66012;SDS011;52783;50.502;8.190;2023-07-20T05:37:31;6.03;;;3.45;;
66012;SDS011;52783;50.502;8.190;2023-07-20T05:39:57;7.93;;;3.50;;
66012;SDS011;52783;50.502;8.190;2023-07-20T05:42:22;5.28;;;3.17;;
66012;SDS011;52783;50.502;8.190;2023-07-20T05:44:48;7.10;;;3.35;;
66012;SDS011;52783;50.502;8.190;2023-07-20T05:47:14;5.82;;;3.33;;
66012;SDS011;52783;50.502;8.190;2023-07-20T05:49:40;12.45;;;3.95;;
66012;SDS011;52783;50.502;8.190;2023-07-20T05:52:06;7.95;;;3.72;;
66012;SDS011;52783;50.502;8.190;2023-07-20T05:54:31;11.07;;;3.80;;
66012;SDS011;52783;50.502;8.190;2023-07-20T05:56:57;9.90;;;3.70;;
66012;SDS011;52783;50.502;8.190;2023-07-20T05:59:22;8.88;;;3.90;;
66012;SDS011;52783;50.502;8.190;2023-07-20T06:01:49;8.27;;;3.30;;
66012;SDS011;52783;50.502;8.190;2023-07-20T06:04:14;8.27;;;3.40;;
66012;SDS011;52783;50.502;8.190;2023-07-20T06:06:40;5.82;;;3.42;;
66012;SDS011;52783;50.502;8.190;2023-07-20T06:09:06;5.40;;;3.38;;
66012;SDS011;52783;50.502;8.190;2023-07-20T06:11:36;9.50;;;3.55;;
66012;SDS011;52783;50.502;8.190;2023-07-20T06:14:02;4.43;;;3.30;;
66012;SDS011;52783;50.502;8.190;2023-07-20T06:16:28;12.60;;;3.53;;
66012;SDS011;52783;50.502;8.190;2023-07-20T06:18:53;5.55;;;3.22;;
66012;SDS011;52783;50.502;8.190;2023-07-20T06:21:19;6.75;;;3.10;;
66012;SDS011;52783;50.502;8.190;2023-07-20T06:23:44;7.95;;;3.30;;
66012;SDS011;52783;50.502;8.190;2023-07-20T06:26:11;5.07;;;2.95;;
66012;SDS011;52783;50.502;8.190;2023-07-20T06:28:36;12.88;;;3.25;;
66012;SDS011;52783;50.502;8.190;2023-07-20T06:31:02;6.03;;;2.88;;
66012;SDS011;52783;50.502;8.190;2023-07-20T06:33:28;7.57;;;3.25;;
66012;SDS011;52783;50.502;8.190;2023-07-20T06:35:54;8.88;;;3.42;;
66012;SDS011;52783;50.502;8.190;2023-07-20T06:38:22;9.13;;;3.35;;
66012;SDS011;52783;50.502;8.190;2023-07-20T06:40:48;14.57;;;3.47;;
66012;SDS011;52783;50.502;8.190;2023-07-20T06:43:14;9.27;;;3.92;;
66012;SDS011;52783;50.502;8.190;2023-07-20T06:45:41;7.95;;;3.13;;
66012;SDS011;52783;50.502;8.190;2023-07-20T06:48:07;7.90;;;3.40;;
66012;SDS011;52783;50.502;8.190;2023-07-20T06:50:32;9.40;;;3.30;;
66012;SDS011;52783;50.502;8.190;2023-07-20T06:52:58;10.35;;;3.03;;
66012;SDS011;52783;50.502;8.190;2023-07-20T06:55:24;12.82;;;3.08;;
66012;SDS011;52783;50.502;8.190;2023-07-20T06:57:50;5.30;;;3.13;;
66012;SDS011;52783;50.502;8.190;2023-07-20T07:00:16;10.63;;;3.28;;
66012;SDS011;52783;50.502;8.190;2023-07-20T07:02:42;12.15;;;3.67;;
66012;SDS011;52783;50.502;8.190;2023-07-20T07:05:08;4.07;;;2.80;;
66012;SDS011;52783;50.502;8.190;2023-07-20T07:07:33;6.60;;;3.47;;
66012;SDS011;52783;50.502;8.190;2023-07-20T07:09:59;6.70;;;3.05;;
66012;SDS011;52783;50.502;8.190;2023-07-20T07:12:26;8.27;;;3.28;;
66012;SDS011;52783;50.502;8.190;2023-07-20T07:14:51;5.93;;;3.20;;
66012;SDS011;52783;50.502;8.190;2023-07-20T07:17:18;6.38;;;3.33;;
66012;SDS011;52783;50.502;8.190;2023-07-20T07:19:44;7.93;;;4.45;;
66012;SDS011;52783;50.502;8.190;2023-07-20T07:22:09;7.63;;;4.38;;
66012;SDS011;52783;50.502;8.190;2023-07-20T07:24:35;11.88;;;4.97;;
66012;SDS011;52783;50.502;8.190;2023-07-20T07:27:01;10.45;;;4.88;;
66012;SDS011;52783;50.502;8.190;2023-07-20T07:29:27;8.90;;;4.47;;
66012;SDS011;52783;50.502;8.190;2023-07-20T07:31:53;10.00;;;4.88;;
66012;SDS011;52783;50.502;8.190;2023-07-20T07:34:18;8.88;;;4.55;;
66012;SDS011;52783;50.502;8.190;2023-07-20T07:36:44;13.43;;;4.10;;
66012;SDS011;52783;50.502;8.190;2023-07-20T07:39:10;11.68;;;4.60;;
66012;SDS011;52783;50.502;8.190;2023-07-20T07:41:36;11.15;;;4.80;;
66012;SDS011;52783;50.502;8.190;2023-07-20T07:44:01;13.95;;;4.93;;
66012;SDS011;52783;50.502;8.190;2023-07-20T07:46:27;12.60;;;5.20;;
66012;SDS011;52783;50.502;8.190;2023-07-20T07:48:52;10.95;;;4.75;;
66012;SDS011;52783;50.502;8.190;2023-07-20T07:51:18;12.02;;;4.65;;
66012;SDS011;52783;50.502;8.190;2023-07-20T07:53:44;8.93;;;3.90;;
66012;SDS011;52783;50.502;8.190;2023-07-20T07:56:10;8.32;;;4.35;;
66012;SDS011;52783;50.502;8.190;2023-07-20T07:58:36;13.55;;;4.25;;
66012;SDS011;52783;50.502;8.190;2023-07-20T08:01:02;10.23;;;3.90;;
66012;SDS011;52783;50.502;8.190;2023-07-20T08:03:28;11.93;;;3.60;;
66012;SDS011;52783;50.502;8.190;2023-07-20T08:05:54;11.43;;;3.30;;
66012;SDS011;52783;50.502;8.190;2023-07-20T08:08:24;12.60;;;4.50;;
66012;SDS011;52783;50.502;8.190;2023-07-20T08:10:52;9.07;;;3.55;;
66012;SDS011;52783;50.502;8.190;2023-07-20T08:13:19;9.45;;;3.25;;
66012;SDS011;52783;50.502;8.190;2023-07-20T08:15:45;10.82;;;3.35;;
66012;SDS011;52783;50.502;8.190;2023-07-20T08:18:15;11.93;;;3.38;;
66012;SDS011;52783;50.502;8.190;2023-07-20T08:20:43;5.95;;;2.63;;
66012;SDS011;52783;50.502;8.190;2023-07-20T08:23:09;5.82;;;3.13;;
66012;SDS011;52783;50.502;8.190;2023-07-20T08:25:36;6.20;;;2.67;;
66012;SDS011;52783;50.502;8.190;2023-07-20T08:28:04;5.25;;;2.58;;
66012;SDS011;52783;50.502;8.190;2023-07-20T08:30:39;5.05;;;2.83;;
66012;SDS011;52783;50.502;8.190;2023-07-20T08:33:15;5.15;;;2.55;;
66012;SDS011;52783;50.502;8.190;2023-07-20T08:35:45;5.90;;;2.60;;
66012;SDS011;52783;50.502;8.190;2023-07-20T08:38:12;5.88;;;2.70;;
66012;SDS011;52783;50.502;8.190;2023-07-20T08:40:41;6.10;;;3.20;;
66012;SDS011;52783;50.502;8.190;2023-07-20T08:43:10;6.28;;;3.20;;
66012;SDS011;52783;50.502;8.190;2023-07-20T08:45:38;5.82;;;3.00;;
66012;SDS011;52783;50.502;8.190;2023-07-20T08:48:05;6.65;;;3.15;;
66012;SDS011;52783;50.502;8.190;2023-07-20T08:50:31;5.10;;;2.70;;
66012;SDS011;52783;50.502;8.190;2023-07-20T08:52:58;4.40;;;2.40;;
66012;SDS011;52783;50.502;8.190;2023-07-20T08:55:27;9.18;;;2.63;;
66012;SDS011;52783;50.502;8.190;2023-07-20T08:57:57;4.32;;;2.65;;
66012;SDS011;52783;50.502;8.190;2023-07-20T09:00:24;3.10;;;2.15;;
66012;SDS011;52783;50.502;8.190;2023-07-20T09:02:52;3.80;;;2.45;;
66012;SDS011;52783;50.502;8.190;2023-07-20T09:05:22;5.63;;;2.60;;
66012;SDS011;52783;50.502;8.190;2023-07-20T09:07:49;5.13;;;2.40;;
66012;SDS011;52783;50.502;8.190;2023-07-20T09:10:16;7.45;;;2.75;;
66012;SDS011;52783;50.502;8.190;2023-07-20T09:12:42;8.25;;;2.38;;
66012;SDS011;52783;50.502;8.190;2023-07-20T09:15:09;4.25;;;2.40;;
66012;SDS011;52783;50.502;8.190;2023-07-20T09:17:35;9.38;;;2.80;;
66012;SDS011;52783;50.502;8.190;2023-07-20T09:20:06;3.83;;;2.40;;
66012;SDS011;52783;50.502;8.190;2023-07-20T09:22:35;4.30;;;2.47;;
66012;SDS011;52783;50.502;8.190;2023-07-20T09:25:14;4.82;;;2.83;;
66012;SDS011;52783;50.502;8.190;2023-07-20T09:27:45;5.00;;;2.72;;
66012;SDS011;52783;50.502;8.190;2023-07-20T09:30:13;6.03;;;2.60;;
66012;SDS011;52783;50.502;8.190;2023-07-20T09:32:40;8.05;;;2.80;;
66012;SDS011;52783;50.502;8.190;2023-07-20T09:37:40;7.00;;;2.80;;
66012;SDS011;52783;50.502;8.190;2023-07-20T09:40:11;3.33;;;2.60;;
66012;SDS011;52783;50.502;8.190;2023-07-20T09:42:41;6.47;;;2.70;;
66012;SDS011;52783;50.502;8.190;2023-07-20T09:45:07;4.13;;;2.40;;
66012;SDS011;52783;50.502;8.190;2023-07-20T09:47:35;5.53;;;2.58;;
66012;SDS011;52783;50.502;8.190;2023-07-20T09:50:04;4.00;;;2.78;;
66012;SDS011;52783;50.502;8.190;2023-07-20T09:52:40;4.35;;;2.83;;
66012;SDS011;52783;50.502;8.190;2023-07-20T09:55:09;5.70;;;2.78;;
66012;SDS011;52783;50.502;8.190;2023-07-20T09:57:37;4.32;;;2.70;;
66012;SDS011;52783;50.502;8.190;2023-07-20T10:00:06;5.05;;;2.53;;
66012;SDS011;52783;50.502;8.190;2023-07-20T10:02:38;9.30;;;2.72;;
66012;SDS011;52783;50.502;8.190;2023-07-20T10:07:35;4.53;;;2.40;;
66012;SDS011;52783;50.502;8.190;2023-07-20T10:10:05;5.20;;;2.58;;
66012;SDS011;52783;50.502;8.190;2023-07-20T10:12:35;3.78;;;2.60;;
66012;SDS011;52783;50.502;8.190;2023-07-20T10:15:12;4.15;;;2.42;;
66012;SDS011;52783;50.502;8.190;2023-07-20T10:20:48;3.70;;;2.42;;
66012;SDS011;52783;50.502;8.190;2023-07-20T10:23:16;4.88;;;2.40;;
66012;SDS011;52783;50.502;8.190;2023-07-20T10:25:42;3.72;;;2.10;;
66012;SDS011;52783;50.502;8.190;2023-07-20T10:28:08;5.65;;;2.25;;
66012;SDS011;52783;50.502;8.190;2023-07-20T10:30:35;5.53;;;2.45;;
66012;SDS011;52783;50.502;8.190;2023-07-20T10:33:02;4.72;;;2.30;;
66012;SDS011;52783;50.502;8.190;2023-07-20T10:35:28;5.38;;;2.55;;
66012;SDS011;52783;50.502;8.190;2023-07-20T10:37:54;5.03;;;2.38;;
66012;SDS011;52783;50.502;8.190;2023-07-20T10:40:28;5.30;;;2.72;;
66012;SDS011;52783;50.502;8.190;2023-07-20T10:43:02;5.88;;;2.20;;
66012;SDS011;52783;50.502;8.190;2023-07-20T10:48:04;5.15;;;2.17;;
66012;SDS011;52783;50.502;8.190;2023-07-20T10:50:32;5.88;;;2.53;;
66012;SDS011;52783;50.502;8.190;2023-07-20T10:53:09;4.70;;;2.60;;
66012;SDS011;52783;50.502;8.190;2023-07-20T10:55:44;7.68;;;2.40;;
66012;SDS011;52783;50.502;8.190;2023-07-20T10:58:12;5.65;;;2.50;;
66012;SDS011;52783;50.502;8.190;2023-07-20T11:01:01;3.78;;;2.60;;
66012;SDS011;52783;50.502;8.190;2023-07-20T11:03:31;3.22;;;2.42;;
66012;SDS011;52783;50.502;8.190;2023-07-20T11:11:31;4.15;;;2.40;;
66012;SDS011;52783;50.502;8.190;2023-07-20T11:14:01;5.47;;;2.10;;
66012;SDS011;52783;50.502;8.190;2023-07-20T11:16:32;3.10;;;2.28;;
66012;SDS011;52783;50.502;8.190;2023-07-20T11:19:04;4.85;;;2.45;;
66012;SDS011;52783;50.502;8.190;2023-07-20T11:21:40;4.82;;;2.53;;
66012;SDS011;52783;50.502;8.190;2023-07-20T11:24:06;3.63;;;2.22;;
66012;SDS011;52783;50.502;8.190;2023-07-20T11:26:43;5.38;;;2.50;;
66012;SDS011;52783;50.502;8.190;2023-07-20T11:29:19;3.72;;;2.22;;
66012;SDS011;52783;50.502;8.190;2023-07-20T11:31:46;4.30;;;2.40;;
66012;SDS011;52783;50.502;8.190;2023-07-20T11:34:13;3.13;;;2.20;;
66012;SDS011;52783;50.502;8.190;2023-07-20T11:36:40;3.75;;;2.40;;
66012;SDS011;52783;50.502;8.190;2023-07-20T11:39:10;2.38;;;2.17;;
66012;SDS011;52783;50.502;8.190;2023-07-20T11:41:36;3.78;;;3.00;;
66012;SDS011;52783;50.502;8.190;2023-07-20T11:44:04;6.22;;;2.20;;
66012;SDS011;52783;50.502;8.190;2023-07-20T11:46:31;4.22;;;2.28;;
66012;SDS011;52783;50.502;8.190;2023-07-20T11:48:58;4.22;;;2.00;;
66012;SDS011;52783;50.502;8.190;2023-07-20T11:51:27;4.40;;;2.00;;
66012;SDS011;52783;50.502;8.190;2023-07-20T11:53:54;3.90;;;2.10;;
66012;SDS011;52783;50.502;8.190;2023-07-20T11:56:20;2.88;;;2.50;;
66012;SDS011;52783;50.502;8.190;2023-07-20T11:58:45;3.92;;;2.10;;
66012;SDS011;52783;50.502;8.190;2023-07-20T12:01:12;2.33;;;2.08;;
66012;SDS011;52783;50.502;8.190;2023-07-20T12:03:38;5.28;;;2.00;;
66012;SDS011;52783;50.502;8.190;2023-07-20T12:06:07;4.40;;;2.35;;
66012;SDS011;52783;50.502;8.190;2023-07-20T12:08:34;5.43;;;2.17;;
66012;SDS011;52783;50.502;8.190;2023-07-20T12:10:59;4.40;;;2.10;;
66012;SDS011;52783;50.502;8.190;2023-07-20T12:13:35;5.97;;;2.40;;
66012;SDS011;52783;50.502;8.190;2023-07-20T12:16:11;2.28;;;2.08;;
66012;SDS011;52783;50.502;8.190;2023-07-20T12:18:42;4.50;;;2.20;;
66012;SDS011;52783;50.502;8.190;2023-07-20T12:21:08;5.47;;;2.03;;
66012;SDS011;52783;50.502;8.190;2023-07-20T12:23:35;5.47;;;2.10;;
66012;SDS011;52783;50.502;8.190;2023-07-20T12:26:02;3.92;;;1.90;;
66012;SDS011;52783;50.502;8.190;2023-07-20T12:28:28;2.42;;;2.05;;
66012;SDS011;52783;50.502;8.190;2023-07-20T12:30:54;3.70;;;1.90;;
66012;SDS011;52783;50.502;8.190;2023-07-20T12:33:23;3.55;;;2.05;;
66012;SDS011;52783;50.502;8.190;2023-07-20T12:35:49;4.15;;;1.90;;
66012;SDS011;52783;50.502;8.190;2023-07-20T12:38:15;3.58;;;2.00;;
66012;SDS011;52783;50.502;8.190;2023-07-20T12:40:41;4.00;;;1.80;;
66012;SDS011;52783;50.502;8.190;2023-07-20T12:43:06;2.47;;;1.90;;
66012;SDS011;52783;50.502;8.190;2023-07-20T12:45:32;2.42;;;1.65;;
66012;SDS011;52783;50.502;8.190;2023-07-20T12:47:58;2.13;;;1.58;;
66012;SDS011;52783;50.502;8.190;2023-07-20T12:50:24;3.05;;;1.80;;
66012;SDS011;52783;50.502;8.190;2023-07-20T12:52:50;2.13;;;1.60;;
66012;SDS011;52783;50.502;8.190;2023-07-20T12:55:15;4.32;;;1.50;;
66012;SDS011;52783;50.502;8.190;2023-07-20T12:57:41;2.60;;;1.48;;
66012;SDS011;52783;50.502;8.190;2023-07-20T13:00:08;3.45;;;1.73;;
66012;SDS011;52783;50.502;8.190;2023-07-20T13:02:35;2.70;;;1.50;;
66012;SDS011;52783;50.502;8.190;2023-07-20T13:05:01;7.47;;;1.40;;
66012;SDS011;52783;50.502;8.190;2023-07-20T13:09:58;3.25;;;1.15;;
66012;SDS011;52783;50.502;8.190;2023-07-20T13:12:25;2.95;;;1.42;;
66012;SDS011;52783;50.502;8.190;2023-07-20T13:14:54;1.65;;;1.55;;
66012;SDS011;52783;50.502;8.190;2023-07-20T13:17:21;4.75;;;2.10;;
66012;SDS011;52783;50.502;8.190;2023-07-20T13:19:47;3.13;;;1.65;;
66012;SDS011;52783;50.502;8.190;2023-07-20T13:22:13;4.43;;;1.88;;
66012;SDS011;52783;50.502;8.190;2023-07-20T13:24:39;3.45;;;2.00;;
66012;SDS011;52783;50.502;8.190;2023-07-20T13:27:05;1.77;;;1.60;;
66012;SDS011;52783;50.502;8.190;2023-07-20T13:29:31;5.20;;;1.83;;
66012;SDS011;52783;50.502;8.190;2023-07-20T13:31:57;4.32;;;1.65;;
66012;SDS011;52783;50.502;8.190;2023-07-20T13:34:25;2.45;;;1.90;;
66012;SDS011;52783;50.502;8.190;2023-07-20T13:36:51;8.13;;;1.60;;
66012;SDS011;52783;50.502;8.190;2023-07-20T13:39:16;1.63;;;1.35;;
66012;SDS011;52783;50.502;8.190;2023-07-20T13:41:42;6.80;;;1.63;;
66012;SDS011;52783;50.502;8.190;2023-07-20T13:44:07;3.00;;;1.70;;
66012;SDS011;52783;50.502;8.190;2023-07-20T13:46:33;5.10;;;1.42;;
66012;SDS011;52783;50.502;8.190;2023-07-20T13:48:59;3.85;;;1.58;;
66012;SDS011;52783;50.502;8.190;2023-07-20T13:51:25;8.70;;;1.73;;
66012;SDS011;52783;50.502;8.190;2023-07-20T13:53:51;2.30;;;1.50;;
66012;SDS011;52783;50.502;8.190;2023-07-20T13:56:16;2.10;;;1.30;;
66012;SDS011;52783;50.502;8.190;2023-07-20T13:58:42;2.28;;;1.45;;
66012;SDS011;52783;50.502;8.190;2023-07-20T14:01:08;2.65;;;1.42;;
66012;SDS011;52783;50.502;8.190;2023-07-20T14:03:33;4.88;;;1.73;;
66012;SDS011;52783;50.502;8.190;2023-07-20T14:05:59;6.03;;;1.75;;
66012;SDS011;52783;50.502;8.190;2023-07-20T14:08:24;2.28;;;1.40;;
66012;SDS011;52783;50.502;8.190;2023-07-20T14:10:50;2.22;;;1.52;;
66012;SDS011;52783;50.502;8.190;2023-07-20T14:13:15;8.05;;;1.98;;
66012;SDS011;52783;50.502;8.190;2023-07-20T14:15:41;7.13;;;1.90;;
66012;SDS011;52783;50.502;8.190;2023-07-20T14:18:06;10.52;;;2.08;;
66012;SDS011;52783;50.502;8.190;2023-07-20T14:20:32;3.17;;;1.50;;
66012;SDS011;52783;50.502;8.190;2023-07-20T14:22:57;5.35;;;1.95;;
66012;SDS011;52783;50.502;8.190;2023-07-20T14:25:23;1.75;;;1.50;;
66012;SDS011;52783;50.502;8.190;2023-07-20T14:27:49;4.38;;;1.63;;
66012;SDS011;52783;50.502;8.190;2023-07-20T14:30:14;7.00;;;1.67;;
66012;SDS011;52783;50.502;8.190;2023-07-20T14:32:40;5.30;;;1.85;;
66012;SDS011;52783;50.502;8.190;2023-07-20T14:35:06;1.52;;;1.30;;
66012;SDS011;52783;50.502;8.190;2023-07-20T14:37:32;3.47;;;1.90;;
66012;SDS011;52783;50.502;8.190;2023-07-20T14:39:58;4.07;;;1.85;;
66012;SDS011;52783;50.502;8.190;2023-07-20T14:42:23;3.53;;;1.77;;
66012;SDS011;52783;50.502;8.190;2023-07-20T14:44:49;2.67;;;1.70;;
66012;SDS011;52783;50.502;8.190;2023-07-20T14:47:14;2.08;;;1.70;;
66012;SDS011;52783;50.502;8.190;2023-07-20T14:49:40;3.03;;;1.85;;
66012;SDS011;52783;50.502;8.190;2023-07-20T14:52:06;3.50;;;1.92;;
66012;SDS011;52783;50.502;8.190;2023-07-20T14:54:31;5.47;;;1.98;;
66012;SDS011;52783;50.502;8.190;2023-07-20T14:56:57;3.25;;;1.60;;
66012;SDS011;52783;50.502;8.190;2023-07-20T14:59:23;1.73;;;1.50;;
66012;SDS011;52783;50.502;8.190;2023-07-20T15:01:48;1.98;;;1.50;;
66012;SDS011;52783;50.502;8.190;2023-07-20T15:04:14;2.88;;;1.48;;
66012;SDS011;52783;50.502;8.190;2023-07-20T15:06:40;2.17;;;1.70;;
66012;SDS011;52783;50.502;8.190;2023-07-20T15:09:06;2.70;;;1.70;;